sensor_id;sensor_type;location;lat;lon;timestamp;temperature;humidity
2897;DHT22;1458;49.728;9.228;2023-05-07T00:01:40;12.80;99.90
2897;DHT22;1458;49.728;9.228;2023-05-07T00:04:07;12.90;99.90
2897;DHT22;1458;49.728;9.228;2023-05-07T00:06:35;13.10;99.90
2897;DHT22;1458;49.728;9.228;2023-05-07T00:09:02;13.30;99.90
2897;DHT22;1458;49.728;9.228;2023-05-07T00:11:30;13.30;99.90
2897;DHT22;1458;49.728;9.228;2023-05-07T00:13:57;13.40;99.90
2897;DHT22;1458;49.728;9.228;2023-05-07T00:16:25;13.40;99.90
2897;DHT22;1458;49.728;9.228;2023-05-07T00:18:53;13.40;99.90
2897;DHT22;1458;49.728;9.228;2023-05-07T00:21:21;13.40;99.90
2897;DHT22;1458;49.728;9.228;2023-05-07T00:23:48;13.40;99.90
2897;DHT22;1458;49.728;9.228;2023-05-07T00:26:16;13.40;99.90
2897;DHT22;1458;49.728;9.228;2023-05-07T00:28:45;13.50;99.90
2897;DHT22;1458;49.728;9.228;2023-05-07T00:31:12;13.50;99.90
2897;DHT22;1458;49.728;9.228;2023-05-07T00:33:40;13.40;99.90
2897;DHT22;1458;49.728;9.228;2023-05-07T00:36:09;13.40;99.90
2897;DHT22;1458;49.728;9.228;2023-05-07T00:38:36;13.40;99.90
2897;DHT22;1458;49.728;9.228;2023-05-07T00:41:04;13.30;99.90
2897;DHT22;1458;49.728;9.228;2023-05-07T00:43:32;13.20;99.90
2897;DHT22;1458;49.728;9.228;2023-05-07T00:45:59;13.10;99.90
2897;DHT22;1458;49.728;9.228;2023-05-07T00:48:27;13.00;99.90
2897;DHT22;1458;49.728;9.228;2023-05-07T00:50:54;12.90;99.90
2897;DHT22;1458;49.728;9.228;2023-05-07T00:53:23;12.80;99.90
2897;DHT22;1458;49.728;9.228;2023-05-07T00:55:52;12.90;99.90
2897;DHT22;1458;49.728;9.228;2023-05-07T00:58:20;12.80;99.90
2897;DHT22;1458;49.728;9.228;2023-05-07T01:00:48;12.70;99.90
2897;DHT22;1458;49.728;9.228;2023-05-07T01:03:16;12.50;99.90
2897;DHT22;1458;49.728;9.228;2023-05-07T01:05:44;12.30;99.90
2897;DHT22;1458;49.728;9.228;2023-05-07T01:08:14;12.20;99.90
2897;DHT22;1458;49.728;9.228;2023-05-07T01:10:44;12.10;99.90
2897;DHT22;1458;49.728;9.228;2023-05-07T01:13:12;12.10;99.90
2897;DHT22;1458;49.728;9.228;2023-05-07T01:15:42;12.00;99.90
2897;DHT22;1458;49.728;9.228;2023-05-07T01:18:11;11.90;99.90
2897;DHT22;1458;49.728;9.228;2023-05-07T01:20:38;11.80;99.90
2897;DHT22;1458;49.728;9.228;2023-05-07T01:23:07;11.80;99.90
2897;DHT22;1458;49.728;9.228;2023-05-07T01:25:36;11.80;99.90
2897;DHT22;1458;49.728;9.228;2023-05-07T01:28:03;12.00;99.90
2897;DHT22;1458;49.728;9.228;2023-05-07T01:30:35;12.30;99.90
2897;DHT22;1458;49.728;9.228;2023-05-07T01:33:09;12.40;99.90
2897;DHT22;1458;49.728;9.228;2023-05-07T01:35:40;12.40;99.90
2897;DHT22;1458;49.728;9.228;2023-05-07T01:38:10;12.50;99.90
2897;DHT22;1458;49.728;9.228;2023-05-07T01:40:38;12.50;99.90
2897;DHT22;1458;49.728;9.228;2023-05-07T01:43:06;12.60;99.90
2897;DHT22;1458;49.728;9.228;2023-05-07T01:45:36;12.60;99.90
2897;DHT22;1458;49.728;9.228;2023-05-07T01:48:04;12.60;99.90
2897;DHT22;1458;49.728;9.228;2023-05-07T01:50:33;12.60;99.90
2897;DHT22;1458;49.728;9.228;2023-05-07T01:53:02;12.50;99.90
2897;DHT22;1458;49.728;9.228;2023-05-07T01:55:31;12.50;99.90
2897;DHT22;1458;49.728;9.228;2023-05-07T01:57:58;12.50;99.90
2897;DHT22;1458;49.728;9.228;2023-05-07T02:00:26;12.60;99.90
2897;DHT22;1458;49.728;9.228;2023-05-07T02:02:53;12.70;99.90
2897;DHT22;1458;49.728;9.228;2023-05-07T02:05:30;12.80;99.90
2897;DHT22;1458;49.728;9.228;2023-05-07T02:08:03;12.90;99.90
2897;DHT22;1458;49.728;9.228;2023-05-07T02:10:32;12.80;99.90
2897;DHT22;1458;49.728;9.228;2023-05-07T02:13:00;12.80;99.90
2897;DHT22;1458;49.728;9.228;2023-05-07T02:15:28;12.80;99.90
2897;DHT22;1458;49.728;9.228;2023-05-07T02:18:00;12.90;99.90
2897;DHT22;1458;49.728;9.228;2023-05-07T02:20:29;12.80;99.90
2897;DHT22;1458;49.728;9.228;2023-05-07T02:22:56;12.70;99.90
2897;DHT22;1458;49.728;9.228;2023-05-07T02:25:26;12.70;99.90
2897;DHT22;1458;49.728;9.228;2023-05-07T02:27:56;12.70;99.90
2897;DHT22;1458;49.728;9.228;2023-05-07T02:30:33;12.70;99.90
2897;DHT22;1458;49.728;9.228;2023-05-07T02:33:01;12.70;99.90
2897;DHT22;1458;49.728;9.228;2023-05-07T02:35:28;12.70;99.90
2897;DHT22;1458;49.728;9.228;2023-05-07T02:37:56;12.70;99.90
2897;DHT22;1458;49.728;9.228;2023-05-07T02:40:24;12.70;99.90
2897;DHT22;1458;49.728;9.228;2023-05-07T02:42:52;12.50;99.90
2897;DHT22;1458;49.728;9.228;2023-05-07T02:45:21;12.50;99.90
2897;DHT22;1458;49.728;9.228;2023-05-07T02:47:51;12.50;99.90
2897;DHT22;1458;49.728;9.228;2023-05-07T02:50:19;12.40;99.90
2897;DHT22;1458;49.728;9.228;2023-05-07T02:52:46;12.40;99.90
2897;DHT22;1458;49.728;9.228;2023-05-07T02:55:14;12.30;99.90
2897;DHT22;1458;49.728;9.228;2023-05-07T02:57:41;12.20;99.90
2897;DHT22;1458;49.728;9.228;2023-05-07T03:00:13;12.20;99.90
2897;DHT22;1458;49.728;9.228;2023-05-07T03:02:51;12.20;99.90
2897;DHT22;1458;49.728;9.228;2023-05-07T03:05:19;12.20;99.90
2897;DHT22;1458;49.728;9.228;2023-05-07T03:07:46;12.20;99.90
2897;DHT22;1458;49.728;9.228;2023-05-07T03:10:14;12.10;99.90
2897;DHT22;1458;49.728;9.228;2023-05-07T03:12:42;12.10;99.90
2897;DHT22;1458;49.728;9.228;2023-05-07T03:15:14;12.10;99.90
2897;DHT22;1458;49.728;9.228;2023-05-07T03:17:41;12.00;99.90
2897;DHT22;1458;49.728;9.228;2023-05-07T03:20:11;12.10;99.90
2897;DHT22;1458;49.728;9.228;2023-05-07T03:22:40;12.10;99.90
2897;DHT22;1458;49.728;9.228;2023-05-07T03:25:08;12.20;99.90
2897;DHT22;1458;49.728;9.228;2023-05-07T03:27:36;12.10;99.90
2897;DHT22;1458;49.728;9.228;2023-05-07T03:30:05;12.00;99.90
2897;DHT22;1458;49.728;9.228;2023-05-07T03:32:33;12.00;99.90
2897;DHT22;1458;49.728;9.228;2023-05-07T03:35:04;12.10;99.90
2897;DHT22;1458;49.728;9.228;2023-05-07T03:37:34;12.20;99.90
2897;DHT22;1458;49.728;9.228;2023-05-07T03:40:02;12.20;99.90
2897;DHT22;1458;49.728;9.228;2023-05-07T03:42:35;12.20;99.90
2897;DHT22;1458;49.728;9.228;2023-05-07T03:45:03;12.20;99.90
2897;DHT22;1458;49.728;9.228;2023-05-07T03:47:31;12.20;99.90
2897;DHT22;1458;49.728;9.228;2023-05-07T03:49:58;12.30;99.90
2897;DHT22;1458;49.728;9.228;2023-05-07T03:52:26;12.30;99.90
2897;DHT22;1458;49.728;9.228;2023-05-07T03:54:58;12.20;99.90
2897;DHT22;1458;49.728;9.228;2023-05-07T03:57:25;12.30;99.90
2897;DHT22;1458;49.728;9.228;2023-05-07T03:59:53;12.30;99.90
2897;DHT22;1458;49.728;9.228;2023-05-07T04:02:20;12.30;99.90
2897;DHT22;1458;49.728;9.228;2023-05-07T04:04:48;12.30;99.90
2897;DHT22;1458;49.728;9.228;2023-05-07T04:07:16;12.30;99.90
2897;DHT22;1458;49.728;9.228;2023-05-07T04:09:48;12.30;99.90
2897;DHT22;1458;49.728;9.228;2023-05-07T04:12:17;12.30;99.90
2897;DHT22;1458;49.728;9.228;2023-05-07T04:14:45;12.30;99.90
2897;DHT22;1458;49.728;9.228;2023-05-07T04:17:13;12.30;99.90
2897;DHT22;1458;49.728;9.228;2023-05-07T04:19:40;12.40;99.90
2897;DHT22;1458;49.728;9.228;2023-05-07T04:22:11;12.40;99.90
2897;DHT22;1458;49.728;9.228;2023-05-07T04:24:39;12.50;99.90
2897;DHT22;1458;49.728;9.228;2023-05-07T04:27:06;12.40;99.90
2897;DHT22;1458;49.728;9.228;2023-05-07T04:29:35;12.40;99.90
2897;DHT22;1458;49.728;9.228;2023-05-07T04:32:02;12.50;99.90
2897;DHT22;1458;49.728;9.228;2023-05-07T04:34:30;12.60;99.90
2897;DHT22;1458;49.728;9.228;2023-05-07T04:36:59;12.70;99.90
2897;DHT22;1458;49.728;9.228;2023-05-07T04:39:27;12.70;99.90
2897;DHT22;1458;49.728;9.228;2023-05-07T04:41:55;12.70;99.90
2897;DHT22;1458;49.728;9.228;2023-05-07T04:44:23;12.80;99.90
2897;DHT22;1458;49.728;9.228;2023-05-07T04:46:52;12.70;99.90
2897;DHT22;1458;49.728;9.228;2023-05-07T04:49:19;12.80;99.90
2897;DHT22;1458;49.728;9.228;2023-05-07T04:51:47;12.80;99.90
2897;DHT22;1458;49.728;9.228;2023-05-07T04:54:18;12.90;99.90
2897;DHT22;1458;49.728;9.228;2023-05-07T04:56:46;12.80;99.90
2897;DHT22;1458;49.728;9.228;2023-05-07T04:59:13;12.90;99.90
2897;DHT22;1458;49.728;9.228;2023-05-07T05:01:41;12.90;99.90
2897;DHT22;1458;49.728;9.228;2023-05-07T05:04:09;13.00;99.90
2897;DHT22;1458;49.728;9.228;2023-05-07T05:06:37;13.00;99.90
2897;DHT22;1458;49.728;9.228;2023-05-07T05:09:06;13.10;99.90
2897;DHT22;1458;49.728;9.228;2023-05-07T05:11:34;13.10;99.90
2897;DHT22;1458;49.728;9.228;2023-05-07T05:14:01;13.20;99.90
2897;DHT22;1458;49.728;9.228;2023-05-07T05:16:29;13.30;99.90
2897;DHT22;1458;49.728;9.228;2023-05-07T05:18:56;13.30;99.90
2897;DHT22;1458;49.728;9.228;2023-05-07T05:21:25;13.30;99.90
2897;DHT22;1458;49.728;9.228;2023-05-07T05:23:58;13.40;99.90
2897;DHT22;1458;49.728;9.228;2023-05-07T05:26:25;13.50;99.90
2897;DHT22;1458;49.728;9.228;2023-05-07T05:28:53;13.60;99.90
2897;DHT22;1458;49.728;9.228;2023-05-07T05:31:23;13.60;99.90
2897;DHT22;1458;49.728;9.228;2023-05-07T05:33:51;13.70;99.90
2897;DHT22;1458;49.728;9.228;2023-05-07T05:36:18;14.00;99.90
2897;DHT22;1458;49.728;9.228;2023-05-07T05:38:49;14.20;99.90
2897;DHT22;1458;49.728;9.228;2023-05-07T05:41:16;14.30;99.90
2897;DHT22;1458;49.728;9.228;2023-05-07T05:43:44;14.30;99.90
2897;DHT22;1458;49.728;9.228;2023-05-07T05:46:11;14.30;99.90
2897;DHT22;1458;49.728;9.228;2023-05-07T05:48:39;14.50;99.90
2897;DHT22;1458;49.728;9.228;2023-05-07T05:51:07;14.70;99.90
2897;DHT22;1458;49.728;9.228;2023-05-07T05:53:35;14.70;99.90
2897;DHT22;1458;49.728;9.228;2023-05-07T05:56:04;14.80;99.90
2897;DHT22;1458;49.728;9.228;2023-05-07T05:58:34;15.00;99.90
2897;DHT22;1458;49.728;9.228;2023-05-07T06:01:04;15.00;99.90
2897;DHT22;1458;49.728;9.228;2023-05-07T06:03:34;15.20;99.90
2897;DHT22;1458;49.728;9.228;2023-05-07T06:06:05;15.10;99.90
2897;DHT22;1458;49.728;9.228;2023-05-07T06:08:32;15.30;99.90
2897;DHT22;1458;49.728;9.228;2023-05-07T06:11:01;15.40;99.90
2897;DHT22;1458;49.728;9.228;2023-05-07T06:13:33;15.50;99.90
2897;DHT22;1458;49.728;9.228;2023-05-07T06:16:00;15.60;99.90
2897;DHT22;1458;49.728;9.228;2023-05-07T06:18:29;15.60;99.90
2897;DHT22;1458;49.728;9.228;2023-05-07T06:20:56;15.70;99.90
2897;DHT22;1458;49.728;9.228;2023-05-07T06:23:27;15.90;99.90
2897;DHT22;1458;49.728;9.228;2023-05-07T06:25:54;16.00;99.90
2897;DHT22;1458;49.728;9.228;2023-05-07T06:28:27;16.20;99.90
2897;DHT22;1458;49.728;9.228;2023-05-07T06:31:11;16.30;99.90
2897;DHT22;1458;49.728;9.228;2023-05-07T06:33:40;16.40;99.90
2897;DHT22;1458;49.728;9.228;2023-05-07T06:36:08;16.50;99.90
2897;DHT22;1458;49.728;9.228;2023-05-07T06:38:36;16.60;99.90
2897;DHT22;1458;49.728;9.228;2023-05-07T06:41:03;16.50;99.90
2897;DHT22;1458;49.728;9.228;2023-05-07T06:43:32;16.70;99.90
2897;DHT22;1458;49.728;9.228;2023-05-07T06:46:23;16.60;99.90
2897;DHT22;1458;49.728;9.228;2023-05-07T06:48:51;16.60;99.90
2897;DHT22;1458;49.728;9.228;2023-05-07T06:51:19;16.70;99.90
2897;DHT22;1458;49.728;9.228;2023-05-07T06:53:47;16.80;99.90
2897;DHT22;1458;49.728;9.228;2023-05-07T06:56:14;16.90;99.90
2897;DHT22;1458;49.728;9.228;2023-05-07T06:58:42;17.00;99.90
2897;DHT22;1458;49.728;9.228;2023-05-07T07:01:10;16.90;99.90
2897;DHT22;1458;49.728;9.228;2023-05-07T07:03:39;17.10;99.90
2897;DHT22;1458;49.728;9.228;2023-05-07T07:06:07;17.20;97.20
2897;DHT22;1458;49.728;9.228;2023-05-07T07:08:34;17.20;97.40
2897;DHT22;1458;49.728;9.228;2023-05-07T07:11:04;17.20;97.30
2897;DHT22;1458;49.728;9.228;2023-05-07T07:13:32;17.30;96.70
2897;DHT22;1458;49.728;9.228;2023-05-07T07:16:00;17.30;96.00
2897;DHT22;1458;49.728;9.228;2023-05-07T07:18:28;17.30;96.00
2897;DHT22;1458;49.728;9.228;2023-05-07T07:20:58;17.20;95.80
2897;DHT22;1458;49.728;9.228;2023-05-07T07:23:26;17.20;95.10
2897;DHT22;1458;49.728;9.228;2023-05-07T07:25:54;17.40;94.80
2897;DHT22;1458;49.728;9.228;2023-05-07T07:28:21;17.50;94.90
2897;DHT22;1458;49.728;9.228;2023-05-07T07:30:49;17.50;95.00
2897;DHT22;1458;49.728;9.228;2023-05-07T07:33:17;17.60;94.90
2897;DHT22;1458;49.728;9.228;2023-05-07T07:35:44;17.70;93.90
2897;DHT22;1458;49.728;9.228;2023-05-07T07:38:13;17.90;92.50
2897;DHT22;1458;49.728;9.228;2023-05-07T07:40:41;18.20;94.00
2897;DHT22;1458;49.728;9.228;2023-05-07T07:43:10;18.40;92.30
2897;DHT22;1458;49.728;9.228;2023-05-07T07:45:37;18.50;92.30
2897;DHT22;1458;49.728;9.228;2023-05-07T07:48:06;18.50;90.90
2897;DHT22;1458;49.728;9.228;2023-05-07T07:50:36;18.40;91.00
2897;DHT22;1458;49.728;9.228;2023-05-07T07:53:04;18.50;90.30
2897;DHT22;1458;49.728;9.228;2023-05-07T07:55:38;18.90;90.60
2897;DHT22;1458;49.728;9.228;2023-05-07T07:58:06;19.00;88.70
2897;DHT22;1458;49.728;9.228;2023-05-07T08:00:33;18.80;86.40
2897;DHT22;1458;49.728;9.228;2023-05-07T08:03:01;18.80;87.90
2897;DHT22;1458;49.728;9.228;2023-05-07T08:05:33;19.00;87.40
2897;DHT22;1458;49.728;9.228;2023-05-07T08:08:02;19.10;83.40
2897;DHT22;1458;49.728;9.228;2023-05-07T08:10:34;18.80;85.10
2897;DHT22;1458;49.728;9.228;2023-05-07T08:13:08;19.10;83.20
2897;DHT22;1458;49.728;9.228;2023-05-07T08:15:38;19.20;84.20
2897;DHT22;1458;49.728;9.228;2023-05-07T08:18:06;19.20;83.40
2897;DHT22;1458;49.728;9.228;2023-05-07T08:20:34;19.40;83.60
2897;DHT22;1458;49.728;9.228;2023-05-07T08:23:05;19.30;81.40
2897;DHT22;1458;49.728;9.228;2023-05-07T08:25:35;19.30;86.80
2897;DHT22;1458;49.728;9.228;2023-05-07T08:28:03;19.40;83.20
2897;DHT22;1458;49.728;9.228;2023-05-07T08:30:31;19.40;81.30
2897;DHT22;1458;49.728;9.228;2023-05-07T08:32:59;19.40;83.40
2897;DHT22;1458;49.728;9.228;2023-05-07T08:35:27;19.40;82.40
2897;DHT22;1458;49.728;9.228;2023-05-07T08:37:54;19.20;82.10
2897;DHT22;1458;49.728;9.228;2023-05-07T08:40:25;19.20;81.60
2897;DHT22;1458;49.728;9.228;2023-05-07T08:42:56;19.00;83.30
2897;DHT22;1458;49.728;9.228;2023-05-07T08:45:24;19.20;82.10
2897;DHT22;1458;49.728;9.228;2023-05-07T08:47:58;19.20;83.40
2897;DHT22;1458;49.728;9.228;2023-05-07T08:50:31;19.40;85.40
2897;DHT22;1458;49.728;9.228;2023-05-07T08:52:59;19.60;83.70
2897;DHT22;1458;49.728;9.228;2023-05-07T08:55:28;19.70;83.40
2897;DHT22;1458;49.728;9.228;2023-05-07T08:57:58;19.90;82.20
2897;DHT22;1458;49.728;9.228;2023-05-07T09:00:25;20.10;79.80
2897;DHT22;1458;49.728;9.228;2023-05-07T09:02:55;20.10;77.40
2897;DHT22;1458;49.728;9.228;2023-05-07T09:05:23;20.30;80.40
2897;DHT22;1458;49.728;9.228;2023-05-07T09:07:51;20.50;77.40
2897;DHT22;1458;49.728;9.228;2023-05-07T09:10:20;20.50;74.70
2897;DHT22;1458;49.728;9.228;2023-05-07T09:12:48;20.30;77.60
2897;DHT22;1458;49.728;9.228;2023-05-07T09:15:18;20.60;79.20
2897;DHT22;1458;49.728;9.228;2023-05-07T09:17:46;20.90;74.20
2897;DHT22;1458;49.728;9.228;2023-05-07T09:20:14;21.10;75.60
2897;DHT22;1458;49.728;9.228;2023-05-07T09:22:42;21.40;78.90
2897;DHT22;1458;49.728;9.228;2023-05-07T09:25:13;21.60;75.60
2897;DHT22;1458;49.728;9.228;2023-05-07T09:27:42;21.80;75.70
2897;DHT22;1458;49.728;9.228;2023-05-07T09:30:11;21.30;72.00
2897;DHT22;1458;49.728;9.228;2023-05-07T09:32:41;21.30;73.60
2897;DHT22;1458;49.728;9.228;2023-05-07T09:35:15;21.30;72.30
2897;DHT22;1458;49.728;9.228;2023-05-07T09:37:45;21.40;72.40
2897;DHT22;1458;49.728;9.228;2023-05-07T09:40:20;21.60;75.30
2897;DHT22;1458;49.728;9.228;2023-05-07T09:42:49;21.70;75.20
2897;DHT22;1458;49.728;9.228;2023-05-07T09:45:21;21.40;74.30
2897;DHT22;1458;49.728;9.228;2023-05-07T09:47:54;21.40;70.40
2897;DHT22;1458;49.728;9.228;2023-05-07T09:50:26;21.30;74.60
2897;DHT22;1458;49.728;9.228;2023-05-07T09:52:56;21.30;71.40
2897;DHT22;1458;49.728;9.228;2023-05-07T09:55:25;21.00;73.70
2897;DHT22;1458;49.728;9.228;2023-05-07T09:57:54;21.20;73.30
2897;DHT22;1458;49.728;9.228;2023-05-07T10:00:23;21.10;72.00
2897;DHT22;1458;49.728;9.228;2023-05-07T10:03:02;21.30;72.70
2897;DHT22;1458;49.728;9.228;2023-05-07T10:05:42;21.30;74.20
2897;DHT22;1458;49.728;9.228;2023-05-07T10:08:11;21.50;75.50
2897;DHT22;1458;49.728;9.228;2023-05-07T10:10:40;21.60;75.80
2897;DHT22;1458;49.728;9.228;2023-05-07T10:13:12;21.80;69.30
2897;DHT22;1458;49.728;9.228;2023-05-07T10:15:44;22.00;69.40
2897;DHT22;1458;49.728;9.228;2023-05-07T10:18:14;21.80;69.70
2897;DHT22;1458;49.728;9.228;2023-05-07T10:20:47;21.60;70.50
2897;DHT22;1458;49.728;9.228;2023-05-07T10:23:19;21.20;72.00
2897;DHT22;1458;49.728;9.228;2023-05-07T10:25:55;21.10;72.60
2897;DHT22;1458;49.728;9.228;2023-05-07T10:28:25;21.00;72.30
2897;DHT22;1458;49.728;9.228;2023-05-07T10:31:01;21.10;74.50
2897;DHT22;1458;49.728;9.228;2023-05-07T10:33:42;21.40;73.20
2897;DHT22;1458;49.728;9.228;2023-05-07T10:36:11;21.60;75.60
2897;DHT22;1458;49.728;9.228;2023-05-07T10:38:39;21.80;74.70
2897;DHT22;1458;49.728;9.228;2023-05-07T10:41:07;22.20;68.80
2897;DHT22;1458;49.728;9.228;2023-05-07T10:43:40;22.10;69.20
2897;DHT22;1458;49.728;9.228;2023-05-07T10:46:15;22.40;69.70
2897;DHT22;1458;49.728;9.228;2023-05-07T10:49:13;22.60;67.10
2897;DHT22;1458;49.728;9.228;2023-05-07T10:52:14;22.70;67.20
2897;DHT22;1458;49.728;9.228;2023-05-07T10:55:20;22.80;65.30
2897;DHT22;1458;49.728;9.228;2023-05-07T10:58:22;23.00;63.60
2897;DHT22;1458;49.728;9.228;2023-05-07T11:00:58;22.90;65.40
2897;DHT22;1458;49.728;9.228;2023-05-07T11:03:33;22.90;63.30
2897;DHT22;1458;49.728;9.228;2023-05-07T11:06:11;22.80;62.90
2897;DHT22;1458;49.728;9.228;2023-05-07T11:08:53;23.10;65.20
2897;DHT22;1458;49.728;9.228;2023-05-07T11:11:45;23.40;65.90
2897;DHT22;1458;49.728;9.228;2023-05-07T11:14:45;23.40;62.40
2897;DHT22;1458;49.728;9.228;2023-05-07T11:17:17;23.50;65.10
2897;DHT22;1458;49.728;9.228;2023-05-07T11:19:52;23.40;60.60
2897;DHT22;1458;49.728;9.228;2023-05-07T11:22:42;23.50;62.10
2897;DHT22;1458;49.728;9.228;2023-05-07T11:25:25;23.40;62.10
2897;DHT22;1458;49.728;9.228;2023-05-07T11:28:05;23.70;60.70
2897;DHT22;1458;49.728;9.228;2023-05-07T11:30:33;23.60;63.40
2897;DHT22;1458;49.728;9.228;2023-05-07T11:33:03;23.70;57.80
2897;DHT22;1458;49.728;9.228;2023-05-07T11:35:33;23.50;57.80
2897;DHT22;1458;49.728;9.228;2023-05-07T11:38:02;23.30;60.90
2897;DHT22;1458;49.728;9.228;2023-05-07T11:40:33;23.50;60.10
2897;DHT22;1458;49.728;9.228;2023-05-07T11:43:10;23.90;58.80
2897;DHT22;1458;49.728;9.228;2023-05-07T11:45:38;24.10;60.70
2897;DHT22;1458;49.728;9.228;2023-05-07T11:48:06;24.00;58.60
2897;DHT22;1458;49.728;9.228;2023-05-07T11:50:34;23.90;57.00
2897;DHT22;1458;49.728;9.228;2023-05-07T11:53:08;23.80;57.40
2897;DHT22;1458;49.728;9.228;2023-05-07T11:55:36;23.70;55.80
2897;DHT22;1458;49.728;9.228;2023-05-07T11:58:03;23.60;59.30
2897;DHT22;1458;49.728;9.228;2023-05-07T12:00:31;23.50;57.50
2897;DHT22;1458;49.728;9.228;2023-05-07T12:03:03;23.30;57.30
2897;DHT22;1458;49.728;9.228;2023-05-07T12:05:31;23.30;60.00
2897;DHT22;1458;49.728;9.228;2023-05-07T12:07:59;23.20;57.80
2897;DHT22;1458;49.728;9.228;2023-05-07T12:10:29;22.80;57.90
2897;DHT22;1458;49.728;9.228;2023-05-07T12:12:57;22.70;60.30
2897;DHT22;1458;49.728;9.228;2023-05-07T12:15:24;22.80;61.60
2897;DHT22;1458;49.728;9.228;2023-05-07T12:17:52;22.90;61.70
2897;DHT22;1458;49.728;9.228;2023-05-07T12:20:20;22.80;57.80
2897;DHT22;1458;49.728;9.228;2023-05-07T12:22:49;22.80;64.00
2897;DHT22;1458;49.728;9.228;2023-05-07T12:25:19;23.00;58.90
2897;DHT22;1458;49.728;9.228;2023-05-07T12:27:52;22.80;60.60
2897;DHT22;1458;49.728;9.228;2023-05-07T12:30:20;23.00;61.20
2897;DHT22;1458;49.728;9.228;2023-05-07T12:32:52;23.00;57.60
2897;DHT22;1458;49.728;9.228;2023-05-07T12:35:26;23.00;58.30
2897;DHT22;1458;49.728;9.228;2023-05-07T12:37:55;23.10;56.50
2897;DHT22;1458;49.728;9.228;2023-05-07T12:40:34;23.30;58.30
2897;DHT22;1458;49.728;9.228;2023-05-07T12:43:04;23.40;59.70
2897;DHT22;1458;49.728;9.228;2023-05-07T12:45:31;23.50;56.40
2897;DHT22;1458;49.728;9.228;2023-05-07T12:48:04;23.40;56.40
2897;DHT22;1458;49.728;9.228;2023-05-07T12:50:33;23.20;56.40
2897;DHT22;1458;49.728;9.228;2023-05-07T12:53:03;23.10;55.20
2897;DHT22;1458;49.728;9.228;2023-05-07T12:55:32;23.20;56.40
2897;DHT22;1458;49.728;9.228;2023-05-07T12:58:15;23.30;57.70
2897;DHT22;1458;49.728;9.228;2023-05-07T13:00:44;23.10;56.10
2897;DHT22;1458;49.728;9.228;2023-05-07T13:03:15;23.00;55.80
2897;DHT22;1458;49.728;9.228;2023-05-07T13:05:48;23.10;57.00
2897;DHT22;1458;49.728;9.228;2023-05-07T13:08:24;23.20;54.80
2897;DHT22;1458;49.728;9.228;2023-05-07T13:10:52;23.10;55.80
2897;DHT22;1458;49.728;9.228;2023-05-07T13:13:21;23.10;56.40
2897;DHT22;1458;49.728;9.228;2023-05-07T13:15:49;23.20;57.80
2897;DHT22;1458;49.728;9.228;2023-05-07T13:18:17;23.20;56.30
2897;DHT22;1458;49.728;9.228;2023-05-07T13:20:45;23.30;55.20
2897;DHT22;1458;49.728;9.228;2023-05-07T13:23:12;23.20;53.50
2897;DHT22;1458;49.728;9.228;2023-05-07T13:25:40;23.30;53.20
2897;DHT22;1458;49.728;9.228;2023-05-07T13:28:07;23.10;55.00
2897;DHT22;1458;49.728;9.228;2023-05-07T13:30:36;23.00;51.70
2897;DHT22;1458;49.728;9.228;2023-05-07T13:33:04;23.10;53.70
2897;DHT22;1458;49.728;9.228;2023-05-07T13:35:31;23.40;52.60
2897;DHT22;1458;49.728;9.228;2023-05-07T13:37:59;23.40;52.60
2897;DHT22;1458;49.728;9.228;2023-05-07T13:40:26;23.40;49.30
2897;DHT22;1458;49.728;9.228;2023-05-07T13:42:56;23.30;50.30
2897;DHT22;1458;49.728;9.228;2023-05-07T13:45:24;23.20;51.30
2897;DHT22;1458;49.728;9.228;2023-05-07T13:47:54;23.30;50.50
2897;DHT22;1458;49.728;9.228;2023-05-07T13:50:21;23.40;49.20
2897;DHT22;1458;49.728;9.228;2023-05-07T13:52:49;23.50;53.80
2897;DHT22;1458;49.728;9.228;2023-05-07T13:55:17;23.60;49.40
2897;DHT22;1458;49.728;9.228;2023-05-07T13:57:46;23.50;49.40
2897;DHT22;1458;49.728;9.228;2023-05-07T14:00:14;23.60;48.60
2897;DHT22;1458;49.728;9.228;2023-05-07T14:02:42;23.60;47.40
2897;DHT22;1458;49.728;9.228;2023-05-07T14:05:11;23.60;46.70
2897;DHT22;1458;49.728;9.228;2023-05-07T14:07:39;23.60;43.80
2897;DHT22;1458;49.728;9.228;2023-05-07T14:10:07;23.60;44.40
2897;DHT22;1458;49.728;9.228;2023-05-07T14:12:37;23.70;47.50
2897;DHT22;1458;49.728;9.228;2023-05-07T14:15:05;23.90;44.90
2897;DHT22;1458;49.728;9.228;2023-05-07T14:17:33;23.90;45.40
2897;DHT22;1458;49.728;9.228;2023-05-07T14:20:01;23.80;46.20
2897;DHT22;1458;49.728;9.228;2023-05-07T14:22:30;23.70;45.10
2897;DHT22;1458;49.728;9.228;2023-05-07T14:24:57;23.70;47.10
2897;DHT22;1458;49.728;9.228;2023-05-07T14:27:25;23.60;48.00
2897;DHT22;1458;49.728;9.228;2023-05-07T14:29:53;23.50;50.30
2897;DHT22;1458;49.728;9.228;2023-05-07T14:32:22;23.40;50.40
2897;DHT22;1458;49.728;9.228;2023-05-07T14:34:50;23.10;49.20
2897;DHT22;1458;49.728;9.228;2023-05-07T14:37:17;23.10;48.90
2897;DHT22;1458;49.728;9.228;2023-05-07T14:39:47;23.00;50.50
2897;DHT22;1458;49.728;9.228;2023-05-07T14:42:14;23.10;51.30
2897;DHT22;1458;49.728;9.228;2023-05-07T14:44:42;23.10;51.20
2897;DHT22;1458;49.728;9.228;2023-05-07T14:47:11;23.00;52.30
2897;DHT22;1458;49.728;9.228;2023-05-07T14:49:38;22.90;53.00
2897;DHT22;1458;49.728;9.228;2023-05-07T14:52:06;22.80;53.70
2897;DHT22;1458;49.728;9.228;2023-05-07T14:54:36;22.80;52.80
2897;DHT22;1458;49.728;9.228;2023-05-07T14:57:07;22.70;53.70
2897;DHT22;1458;49.728;9.228;2023-05-07T14:59:35;22.70;52.50
2897;DHT22;1458;49.728;9.228;2023-05-07T15:02:05;22.50;54.00
2897;DHT22;1458;49.728;9.228;2023-05-07T15:04:33;22.50;54.30
2897;DHT22;1458;49.728;9.228;2023-05-07T15:07:01;22.50;52.90
2897;DHT22;1458;49.728;9.228;2023-05-07T15:09:29;22.30;54.10
2897;DHT22;1458;49.728;9.228;2023-05-07T15:11:58;22.20;54.00
2897;DHT22;1458;49.728;9.228;2023-05-07T15:14:27;22.20;53.50
2897;DHT22;1458;49.728;9.228;2023-05-07T15:16:54;22.10;53.70
2897;DHT22;1458;49.728;9.228;2023-05-07T15:19:22;22.10;54.80
2897;DHT22;1458;49.728;9.228;2023-05-07T15:21:54;22.00;55.60
2897;DHT22;1458;49.728;9.228;2023-05-07T15:24:22;21.90;56.40
2897;DHT22;1458;49.728;9.228;2023-05-07T15:26:53;21.90;56.40
2897;DHT22;1458;49.728;9.228;2023-05-07T15:29:20;21.80;58.10
2897;DHT22;1458;49.728;9.228;2023-05-07T15:31:49;21.70;56.90
2897;DHT22;1458;49.728;9.228;2023-05-07T15:34:17;21.60;58.60
2897;DHT22;1458;49.728;9.228;2023-05-07T15:36:45;21.50;59.50
2897;DHT22;1458;49.728;9.228;2023-05-07T15:39:12;21.50;60.90
2897;DHT22;1458;49.728;9.228;2023-05-07T15:41:40;21.30;61.70
2897;DHT22;1458;49.728;9.228;2023-05-07T15:44:07;21.20;62.80
2897;DHT22;1458;49.728;9.228;2023-05-07T15:46:35;21.10;63.60
2897;DHT22;1458;49.728;9.228;2023-05-07T15:49:04;20.90;66.20
2897;DHT22;1458;49.728;9.228;2023-05-07T15:51:34;20.80;66.80
2897;DHT22;1458;49.728;9.228;2023-05-07T15:54:02;20.60;68.90
2897;DHT22;1458;49.728;9.228;2023-05-07T15:56:30;20.30;76.10
2897;DHT22;1458;49.728;9.228;2023-05-07T15:58:58;20.10;81.30
2897;DHT22;1458;49.728;9.228;2023-05-07T16:01:27;19.90;87.10
2897;DHT22;1458;49.728;9.228;2023-05-07T16:03:54;19.70;90.60
2897;DHT22;1458;49.728;9.228;2023-05-07T16:06:24;19.50;92.50
2897;DHT22;1458;49.728;9.228;2023-05-07T16:08:52;19.50;91.40
2897;DHT22;1458;49.728;9.228;2023-05-07T16:11:20;19.40;92.20
2897;DHT22;1458;49.728;9.228;2023-05-07T16:13:47;19.40;91.20
2897;DHT22;1458;49.728;9.228;2023-05-07T16:16:15;19.20;91.90
2897;DHT22;1458;49.728;9.228;2023-05-07T16:18:42;19.20;93.40